Terminal Aerodrome Forecast
Issued by NWS Mt. Holly, NJ

Home | Current Version | Previous Version | Text Only | Print | Product List | Glossary On
Versions: 1 2 3 4 5 6 7 8 9 10 11 12 13 14 15 16 17 18 19 20 21 22 23 24 25 26 27 28 29 30 31 32 33 34 35 36
000
FTUS41 KPHI 252348 CCA
TAFPHL
TAF COR
KPHL 252348Z 2600/2706 06004KT P6SM BKN035
     FM260400 VRB03KT P6SM BKN025
     FM261400 06005KT P6SM BKN035
     FM261800 12005KT P6SM SCT045
     FM270200 16004KT P6SM SCT250=

USA.gov is the U.S. government's official web portal to all federal, state and local government web resources and services.